createdAt,value
2022-11-25T00:02:47.360Z,25.88
2022-11-25T00:05:52.902Z,23.05
2022-11-25T00:09:01.156Z,25.48
2022-11-25T00:12:06.807Z,24.55
2022-11-25T00:15:15.855Z,23.75
2022-11-25T00:18:21.653Z,21.50
2022-11-25T00:21:27.383Z,21.42
2022-11-25T00:24:36.595Z,24.17
2022-11-25T00:27:42.950Z,21.02
2022-11-25T00:30:48.270Z,21.13
2022-11-25T00:33:53.653Z,21.42
2022-11-25T00:36:59.066Z,21.85
2022-11-25T00:40:09.747Z,22.50
2022-11-25T00:43:27.642Z,21.38
2022-11-25T00:46:32.613Z,21.20
2022-11-25T00:49:38.400Z,23.25
2022-11-25T00:52:43.895Z,20.15
2022-11-25T00:56:04.288Z,21.48
2022-11-25T00:59:09.304Z,22.92
2022-11-25T01:02:15.181Z,23.38
2022-11-25T01:05:22.471Z,22.35
2022-11-25T01:08:28.282Z,23.02
2022-11-25T01:11:35.821Z,25.23
2022-11-25T01:14:42.051Z,25.35
2022-11-25T01:17:47.148Z,21.85
2022-11-25T01:20:52.684Z,21.15
2022-11-25T01:23:57.924Z,22.15
2022-11-25T01:27:06.065Z,23.63
2022-11-25T01:30:11.899Z,22.65
2022-11-25T01:33:18.070Z,25.80
2022-11-25T01:36:24.398Z,22.50
2022-11-25T01:39:32.830Z,22.90
2022-11-25T01:42:45.484Z,24.90
2022-11-25T01:46:03.237Z,23.90
2022-11-25T01:49:10.441Z,23.65
2022-11-25T01:52:18.610Z,23.30
2022-11-25T01:55:24.821Z,24.90
2022-11-25T01:58:35.792Z,23.52
2022-11-25T02:01:40.916Z,21.48
2022-11-25T02:04:47.697Z,21.65
2022-11-25T02:07:56.374Z,23.42
2022-11-25T02:11:04.825Z,23.00
2022-11-25T02:14:15.415Z,21.25
2022-11-25T02:17:20.792Z,21.70
2022-11-25T02:20:27.594Z,20.98
2022-11-25T02:23:38.296Z,20.33
2022-11-25T02:26:45.812Z,21.35
2022-11-25T02:29:51.376Z,20.73
2022-11-25T02:32:56.332Z,22.85
2022-11-25T02:36:04.930Z,21.50
2022-11-25T02:39:10.265Z,22.50
2022-11-25T02:42:20.697Z,20.52
2022-11-25T02:45:30.808Z,22.02
2022-11-25T02:49:07.343Z,19.80
2022-11-25T02:52:03.568Z,21.23
2022-11-25T02:55:09.822Z,20.00
2022-11-25T02:58:18.883Z,20.65
2022-11-25T03:01:24.544Z,20.70
2022-11-25T03:04:29.437Z,18.60
2022-11-25T03:07:35.388Z,19.02
2022-11-25T03:10:47.047Z,20.83
2022-11-25T03:14:01.454Z,20.98
2022-11-25T03:17:08.224Z,20.98
2022-11-25T03:20:15.242Z,20.83
2022-11-25T03:23:20.360Z,20.90
2022-11-25T03:26:27.208Z,21.00
2022-11-25T03:29:35.160Z,19.35
2022-11-25T03:32:40.555Z,17.92
2022-11-25T03:35:45.972Z,17.02
2022-11-25T03:38:57.490Z,20.88
2022-11-25T03:42:02.463Z,19.02
2022-11-25T03:45:13.174Z,18.80
2022-11-25T03:48:18.113Z,20.55
2022-11-25T03:51:23.760Z,19.08
2022-11-25T03:54:29.144Z,19.38
2022-11-25T03:57:37.362Z,17.67
2022-11-25T04:00:45.061Z,17.67
2022-11-25T04:03:50.684Z,18.00
2022-11-25T04:06:55.585Z,17.58
2022-11-25T04:10:01.437Z,18.05
2022-11-25T04:13:07.070Z,19.08
2022-11-25T04:16:21.625Z,18.55
2022-11-25T04:19:26.672Z,16.55
2022-11-25T04:22:32.345Z,19.20
2022-11-25T04:25:38.332Z,16.92
2022-11-25T04:28:44.393Z,15.38
2022-11-25T04:31:54.699Z,17.88
2022-11-25T04:34:59.892Z,16.25
2022-11-25T04:38:04.744Z,17.42
2022-11-25T04:41:10.338Z,15.50
2022-11-25T04:44:15.257Z,16.10
2022-11-25T04:47:23.204Z,15.13
2022-11-25T04:50:28.343Z,16.95
2022-11-25T04:53:33.576Z,17.42
2022-11-25T04:56:39.612Z,17.30
2022-11-25T04:59:44.948Z,16.77
2022-11-25T05:02:52.902Z,17.30
2022-11-25T05:05:58.318Z,17.00
2022-11-25T05:09:05.417Z,17.10
2022-11-25T05:12:11.394Z,17.73
2022-11-25T05:15:16.376Z,17.83
2022-11-25T05:18:25.831Z,15.98
2022-11-25T05:21:33.782Z,18.65
2022-11-25T05:24:42.643Z,17.85
2022-11-25T05:27:47.749Z,19.33
2022-11-25T05:30:53.303Z,18.92
2022-11-25T05:34:02.590Z,17.67
2022-11-25T05:37:08.389Z,18.58
2022-11-25T05:40:13.892Z,16.17
2022-11-25T05:43:19.385Z,19.92
2022-11-25T05:46:25.601Z,17.52
2022-11-25T05:49:36.218Z,18.45
2022-11-25T05:52:42.985Z,17.10
2022-11-25T05:55:56.841Z,16.52
2022-11-25T05:59:01.846Z,17.23
2022-11-25T06:02:07.516Z,16.85
2022-11-25T06:05:15.235Z,17.75
2022-11-25T06:08:21.034Z,19.70
2022-11-25T06:11:26.286Z,18.48
2022-11-25T06:14:32.134Z,16.30
2022-11-25T06:17:37.876Z,19.30
2022-11-25T06:20:46.379Z,18.35
2022-11-25T06:23:51.317Z,17.95
2022-11-25T06:27:04.196Z,16.52
2022-11-25T06:30:11.481Z,17.15
2022-11-25T06:33:19.372Z,17.27
2022-11-25T06:36:27.322Z,16.10
2022-11-25T06:39:33.529Z,18.55
2022-11-25T06:42:40.565Z,17.55
2022-11-25T06:45:46.003Z,16.33
2022-11-25T06:48:51.108Z,17.40
2022-11-25T06:51:59.338Z,19.38
2022-11-25T06:55:06.722Z,18.08
2022-11-25T06:58:35.339Z,17.73
2022-11-25T07:01:41.253Z,18.27
2022-11-25T07:04:54.045Z,19.58
2022-11-25T07:08:04.615Z,21.40
2022-11-25T07:11:10.892Z,20.85
2022-11-25T07:14:16.853Z,20.77
2022-11-25T07:17:22.241Z,21.23
2022-11-25T07:20:28.044Z,18.17
2022-11-25T07:23:37.603Z,17.48
2022-11-25T07:26:43.007Z,19.25
2022-11-25T07:30:18.722Z,20.35
2022-11-25T07:33:14.697Z,18.17
2022-11-25T07:36:21.304Z,16.02
2022-11-25T07:39:29.186Z,16.55
2022-11-25T07:42:34.467Z,16.88
2022-11-25T07:45:39.640Z,15.80
2022-11-25T07:48:47.704Z,16.63
2022-11-25T07:51:53.835Z,15.57
2022-11-25T07:55:01.865Z,16.70
2022-11-25T07:58:07.048Z,17.33
2022-11-25T08:01:15.113Z,16.77
2022-11-25T08:04:21.119Z,15.25
2022-11-25T08:07:31.911Z,15.70
2022-11-25T08:13:49.028Z,15.27
2022-11-25T08:16:53.976Z,15.63
2022-11-25T08:20:00.594Z,15.52
2022-11-25T08:23:06.650Z,19.73
2022-11-25T08:26:13.716Z,36.33
2022-11-25T08:29:22.538Z,26.52
2022-11-25T08:32:28.306Z,20.90
2022-11-25T08:35:38.009Z,18.67
2022-11-25T08:38:44.119Z,15.85
2022-11-25T08:41:49.030Z,14.73
2022-11-25T08:44:58.517Z,15.35
2022-11-25T08:48:03.511Z,15.77
2022-11-25T08:51:11.277Z,13.18
2022-11-25T08:54:17.001Z,13.43
2022-11-25T08:57:24.421Z,14.27
2022-11-25T09:00:34.577Z,13.75
2022-11-25T09:03:45.769Z,13.40
2022-11-25T09:06:50.997Z,13.18
2022-11-25T09:09:58.928Z,12.80
2022-11-25T09:13:04.989Z,14.57
2022-11-25T09:16:16.410Z,11.98
2022-11-25T09:19:25.395Z,13.48
2022-11-25T09:22:31.968Z,13.25
2022-11-25T09:25:37.196Z,12.35
2022-11-25T09:28:42.807Z,12.23
2022-11-25T09:32:01.987Z,14.15
2022-11-25T09:35:12.107Z,13.20
2022-11-25T09:38:17.066Z,13.85
2022-11-25T09:41:44.090Z,12.30
2022-11-25T09:45:07.481Z,15.27
2022-11-25T09:48:22.369Z,12.70
2022-11-25T09:51:33.188Z,13.52
2022-11-25T09:54:45.704Z,12.38
2022-11-25T09:57:59.934Z,13.02
2022-11-25T10:01:07.755Z,12.20
2022-11-25T10:04:16.991Z,17.77
2022-11-25T10:07:26.213Z,12.07
2022-11-25T10:10:32.750Z,11.50
2022-11-25T10:13:41.628Z,11.73
2022-11-25T10:16:51.653Z,10.98
2022-11-25T10:20:08.733Z,11.23
2022-11-25T10:23:28.356Z,11.43
2022-11-25T10:26:38.796Z,12.40
2022-11-25T10:29:44.302Z,11.63
2022-11-25T10:32:56.525Z,10.63
2022-11-25T10:36:12.457Z,12.70
2022-11-25T10:39:22.445Z,11.45
2022-11-25T10:42:28.705Z,12.13
2022-11-25T10:45:42.149Z,13.90
2022-11-25T10:48:57.539Z,14.48
2022-11-25T10:52:13.333Z,12.50
2022-11-25T10:55:19.773Z,13.05
2022-11-25T10:58:31.813Z,12.35
2022-11-25T11:01:44.254Z,12.30
2022-11-25T11:08:10.777Z,11.60
2022-11-25T11:11:23.438Z,12.73
2022-11-25T11:14:30.123Z,13.93
2022-11-25T11:17:38.935Z,13.40
2022-11-25T11:20:48.778Z,13.02
2022-11-25T11:23:57.294Z,14.45
2022-11-25T11:27:08.772Z,12.90
2022-11-25T11:30:20.483Z,12.98
2022-11-25T11:33:33.356Z,14.60
2022-11-25T11:36:44.244Z,12.40
2022-11-25T11:40:01.588Z,12.48
2022-11-25T11:43:24.233Z,14.00
2022-11-25T11:46:39.316Z,13.67
2022-11-25T11:50:07.874Z,13.38
2022-11-25T11:53:16.718Z,14.55
2022-11-25T11:56:35.137Z,14.45
2022-11-25T11:59:59.738Z,14.52
2022-11-25T12:03:18.739Z,13.43
2022-11-25T12:06:30.768Z,13.75
2022-11-25T12:09:43.552Z,13.80
2022-11-25T12:12:52.868Z,16.73
2022-11-25T12:16:02.198Z,12.82
2022-11-25T12:19:17.999Z,14.20
2022-11-25T12:22:26.494Z,14.05
2022-11-25T12:25:34.534Z,13.38
2022-11-25T12:28:42.457Z,15.30
2022-11-25T12:31:51.621Z,14.95
2022-11-25T12:35:04.357Z,16.27
2022-11-25T12:38:19.082Z,14.55
2022-11-25T12:41:28.621Z,15.30
2022-11-25T12:44:37.001Z,14.55
2022-11-25T12:47:44.168Z,14.43
2022-11-25T12:50:58.984Z,13.68
2022-11-25T12:54:08.842Z,14.25
2022-11-25T12:57:33.433Z,14.13
2022-11-25T13:00:48.435Z,14.45
2022-11-25T13:04:14.254Z,14.30
2022-11-25T13:11:48.120Z,14.45
2022-11-25T13:15:09.151Z,15.23
2022-11-25T13:18:28.864Z,15.45
2022-11-25T13:21:35.568Z,14.73
2022-11-25T13:24:43.100Z,14.98
2022-11-25T13:28:01.601Z,14.55
2022-11-25T13:31:23.755Z,17.00
2022-11-25T13:34:32.718Z,15.15
2022-11-25T13:37:40.166Z,13.52
2022-11-25T13:41:01.888Z,15.75
2022-11-25T13:44:13.647Z,14.52
2022-11-25T13:47:26.606Z,15.07
2022-11-25T13:50:55.386Z,13.43
2022-11-25T13:54:01.420Z,14.13
2022-11-25T13:57:25.812Z,14.02
2022-11-25T14:00:46.198Z,14.70
2022-11-25T14:04:01.681Z,14.00
2022-11-25T14:07:20.078Z,15.02
2022-11-25T14:10:40.217Z,15.23
2022-11-25T14:13:54.009Z,15.30
2022-11-25T14:17:07.577Z,15.35
2022-11-25T14:20:21.597Z,15.13
2022-11-25T14:23:44.262Z,14.55
2022-11-25T14:27:02.228Z,15.13
2022-11-25T14:30:08.140Z,14.63
2022-11-25T14:33:18.407Z,14.95
2022-11-25T14:36:24.996Z,14.85
2022-11-25T14:39:36.906Z,15.45
2022-11-25T14:42:46.869Z,15.07
2022-11-25T14:46:11.896Z,14.93
2022-11-25T14:49:44.050Z,15.18
2022-11-25T14:52:44.079Z,16.08
2022-11-25T14:55:50.621Z,16.08
2022-11-25T14:58:59.494Z,15.65
2022-11-25T15:02:06.629Z,14.57
2022-11-25T15:05:20.789Z,14.68
2022-11-25T15:08:26.256Z,16.02
2022-11-25T15:11:32.631Z,16.15
2022-11-25T15:14:41.738Z,14.70
2022-11-25T15:17:49.796Z,20.20
2022-11-25T15:20:58.739Z,15.70
2022-11-25T15:24:23.679Z,16.13
2022-11-25T15:27:29.435Z,17.13
2022-11-25T15:30:42.557Z,14.55
2022-11-25T15:36:55.349Z,14.05
2022-11-25T15:40:20.703Z,16.85
2022-11-25T15:43:30.980Z,16.60
2022-11-25T15:46:41.877Z,16.30
2022-11-25T15:49:50.764Z,17.25
2022-11-25T15:52:57.109Z,16.15
2022-11-25T15:56:07.168Z,17.80
2022-11-25T15:59:27.012Z,16.45
2022-11-25T16:02:43.638Z,14.75
2022-11-25T16:05:55.981Z,18.08
2022-11-25T16:09:04.115Z,16.27
2022-11-25T16:12:10.398Z,16.20
2022-11-25T16:15:19.586Z,15.52
2022-11-25T16:18:43.844Z,17.63
2022-11-25T16:22:06.055Z,17.05
2022-11-25T16:25:18.878Z,15.40
2022-11-25T16:28:24.890Z,16.75
2022-11-25T16:31:30.757Z,17.55
2022-11-25T16:34:42.774Z,17.52
2022-11-25T16:37:49.799Z,16.02
2022-11-25T16:40:58.047Z,17.60
2022-11-25T16:44:08.835Z,16.33
2022-11-25T16:47:15.185Z,16.75
2022-11-25T16:50:26.433Z,16.83
2022-11-25T16:53:32.036Z,16.80
2022-11-25T17:00:01.020Z,18.20
2022-11-25T17:03:06.043Z,14.43
2022-11-25T17:06:22.211Z,16.13
2022-11-25T17:09:27.455Z,15.68
2022-11-25T17:12:35.520Z,17.05
2022-11-25T17:15:41.625Z,16.45
2022-11-25T17:18:51.079Z,17.80
2022-11-25T17:22:00.473Z,15.35
2022-11-25T17:25:10.190Z,15.65
2022-11-25T17:28:17.514Z,16.20
2022-11-25T17:31:23.898Z,16.52
2022-11-25T17:34:29.222Z,15.45
2022-11-25T17:37:40.192Z,17.42
2022-11-25T17:40:51.536Z,16.77
2022-11-25T17:44:01.969Z,16.65
2022-11-25T17:47:13.785Z,15.57
2022-11-25T17:50:20.560Z,17.55
2022-11-25T17:53:28.270Z,15.88
2022-11-25T17:56:33.856Z,15.95
2022-11-25T17:59:38.960Z,18.08
2022-11-25T18:02:44.806Z,17.33
2022-11-25T18:05:52.029Z,16.45
2022-11-25T18:09:00.700Z,15.43
2022-11-25T18:12:09.540Z,16.10
2022-11-25T18:15:20.781Z,14.52
2022-11-25T18:18:27.113Z,17.73
2022-11-25T18:21:32.865Z,16.73
2022-11-25T18:24:42.883Z,17.13
2022-11-25T18:27:51.122Z,16.33
2022-11-25T18:30:59.129Z,18.00
2022-11-25T18:34:04.882Z,15.15
2022-11-25T18:37:10.934Z,14.35
2022-11-25T18:40:20.848Z,14.82
2022-11-25T18:43:28.819Z,15.45
2022-11-25T18:46:37.769Z,15.10
2022-11-25T18:49:44.292Z,16.73
2022-11-25T18:52:50.128Z,14.90
2022-11-25T18:55:59.028Z,15.20
2022-11-25T18:59:07.071Z,16.42
2022-11-25T19:02:18.086Z,17.08
2022-11-25T19:05:26.295Z,17.10
2022-11-25T19:08:31.142Z,14.85
2022-11-25T19:11:46.586Z,18.55
2022-11-25T19:14:58.490Z,15.85
2022-11-25T19:18:07.932Z,16.67
2022-11-25T19:21:16.616Z,15.63
2022-11-25T19:24:26.133Z,16.02
2022-11-25T19:27:35.257Z,17.70
2022-11-25T19:30:43.377Z,15.60
2022-11-25T19:33:49.857Z,16.98
2022-11-25T19:36:55.137Z,17.88
2022-11-25T19:40:00.264Z,19.05
2022-11-25T19:43:11.339Z,19.85
2022-11-25T19:46:29.319Z,18.38
2022-11-25T19:49:36.130Z,18.83
2022-11-25T19:52:41.565Z,19.00
2022-11-25T19:55:48.046Z,18.52
2022-11-25T19:58:57.362Z,20.15
2022-11-25T20:02:02.769Z,17.60
2022-11-25T20:05:08.954Z,17.90
2022-11-25T20:08:21.453Z,20.30
2022-11-25T20:11:29.275Z,20.80
2022-11-25T20:14:37.604Z,18.90
2022-11-25T20:17:51.690Z,18.33
2022-11-25T20:21:02.942Z,18.55
2022-11-25T20:24:12.136Z,19.08
2022-11-25T20:27:18.495Z,20.10
2022-11-25T20:30:27.220Z,21.65
2022-11-25T20:33:32.562Z,19.02
2022-11-25T20:36:38.708Z,19.70
2022-11-25T20:39:44.478Z,20.52
2022-11-25T20:42:51.003Z,20.35
2022-11-25T20:46:10.773Z,22.10
2022-11-25T20:49:22.367Z,18.90
2022-11-25T20:52:34.050Z,20.80
2022-11-25T20:55:39.615Z,17.73
2022-11-25T20:58:46.230Z,20.40
2022-11-25T21:01:55.065Z,18.70
2022-11-25T21:05:03.994Z,21.95
2022-11-25T21:08:12.584Z,20.33
2022-11-25T21:11:20.033Z,21.10
2022-11-25T21:14:26.974Z,19.80
2022-11-25T21:17:35.143Z,17.90
2022-11-25T21:20:43.796Z,19.10
2022-11-25T21:23:50.242Z,20.67
2022-11-25T21:26:57.050Z,20.35
2022-11-25T21:30:02.277Z,16.30
2022-11-25T21:33:12.646Z,19.52
2022-11-25T21:36:19.065Z,18.73
2022-11-25T21:39:32.474Z,17.55
2022-11-25T21:42:45.657Z,16.58
2022-11-25T21:45:51.215Z,18.52
2022-11-25T21:49:05.095Z,18.35
2022-11-25T21:52:11.799Z,19.25
2022-11-25T21:55:21.670Z,18.85
2022-11-25T21:58:30.532Z,18.90
2022-11-25T22:01:35.861Z,18.95
2022-11-25T22:04:44.121Z,18.15
2022-11-25T22:07:52.271Z,18.33
2022-11-25T22:11:01.151Z,18.52
2022-11-25T22:14:08.121Z,19.23
2022-11-25T22:17:17.448Z,17.83
2022-11-25T22:20:29.278Z,20.48
2022-11-25T22:23:35.157Z,19.77
2022-11-25T22:26:40.338Z,17.80
2022-11-25T22:29:45.920Z,17.50
2022-11-25T22:32:52.910Z,18.23
2022-11-25T22:36:01.807Z,18.70
2022-11-25T22:39:14.169Z,18.20
2022-11-25T22:42:29.421Z,18.63
2022-11-25T22:45:35.975Z,18.23
2022-11-25T22:48:41.962Z,18.80
2022-11-25T22:51:51.639Z,17.98
2022-11-25T22:54:58.238Z,17.73
2022-11-25T22:58:07.744Z,16.33
2022-11-25T23:01:14.846Z,18.00
2022-11-25T23:04:20.911Z,16.45
2022-11-25T23:07:28.720Z,18.35
2022-11-25T23:10:35.799Z,18.48
2022-11-25T23:13:43.421Z,17.48
2022-11-25T23:16:52.642Z,17.23
2022-11-25T23:19:59.882Z,17.08
2022-11-25T23:23:17.174Z,19.85
2022-11-25T23:26:22.357Z,21.02
2022-11-25T23:29:27.730Z,19.42
2022-11-25T23:32:32.985Z,19.38
2022-11-25T23:35:40.625Z,20.02
2022-11-25T23:38:49.266Z,22.80
2022-11-25T23:41:56.068Z,25.92
2022-11-25T23:45:01.168Z,36.08
2022-11-25T23:48:12.410Z,24.67
2022-11-25T23:51:17.374Z,19.33
2022-11-25T23:54:25.790Z,21.27
2022-11-25T23:57:32.953Z,19.35
